Beauvechain, Belgium
Current Conditions -  °F | °C
As of 4:43 PM on Friday 19 Dec 2014 (Local Time) from EBBE Reporting Station
Broken Clouds Broken Clouds  
Wind Chill: 41°   Ceiling: 4300
Heat Index: 45°   Visibility: 6mi
Dew Point: 41°   Wind: 6mph
Humidity: 87%   Direction: 290°WNW
Pressure: 30"   Gusts: NA
Location:  50.77°N, 4.77°E
Report Text: EBBE 191543Z AUTO 29005KT 9999 FEW021/// BKN043/// 07/05 Q1016 BLU
Loading
Personal Weather Stations






























Interactive Weather Map New forecast layout! Learn more

10-Day Weather Forecast

Advertisements
Track Severe Weather on mobile